sensor_id;sensor_type;location;lat;lon;timestamp;P1;durP1;ratioP1;P2;durP2;ratioP2
2105;SDS011;1059;52.548;13.408;2023-03-01T00:00:12;27.73;;;19.17;;
2105;SDS011;1059;52.548;13.408;2023-03-01T00:02:40;31.20;;;22.23;;
2105;SDS011;1059;52.548;13.408;2023-03-01T00:05:07;32.67;;;21.37;;
2105;SDS011;1059;52.548;13.408;2023-03-01T00:07:35;37.90;;;22.10;;
2105;SDS011;1059;52.548;13.408;2023-03-01T00:10:02;31.87;;;20.00;;
2105;SDS011;1059;52.548;13.408;2023-03-01T00:12:30;36.43;;;23.07;;
2105;SDS011;1059;52.548;13.408;2023-03-01T00:14:57;34.60;;;25.53;;
2105;SDS011;1059;52.548;13.408;2023-03-01T00:17:24;32.70;;;22.00;;
2105;SDS011;1059;52.548;13.408;2023-03-01T00:19:51;33.20;;;21.80;;
2105;SDS011;1059;52.548;13.408;2023-03-01T00:22:18;30.20;;;21.53;;
2105;SDS011;1059;52.548;13.408;2023-03-01T00:24:46;32.17;;;20.97;;
2105;SDS011;1059;52.548;13.408;2023-03-01T00:27:13;33.60;;;21.40;;
2105;SDS011;1059;52.548;13.408;2023-03-01T00:29:40;33.27;;;21.83;;
2105;SDS011;1059;52.548;13.408;2023-03-01T00:32:06;38.13;;;22.70;;
2105;SDS011;1059;52.548;13.408;2023-03-01T00:34:33;28.60;;;19.37;;
2105;SDS011;1059;52.548;13.408;2023-03-01T00:37:00;28.47;;;20.20;;
2105;SDS011;1059;52.548;13.408;2023-03-01T00:39:30;30.53;;;20.30;;
2105;SDS011;1059;52.548;13.408;2023-03-01T00:41:59;28.23;;;19.07;;
2105;SDS011;1059;52.548;13.408;2023-03-01T00:44:26;26.83;;;19.30;;
2105;SDS011;1059;52.548;13.408;2023-03-01T00:46:53;30.43;;;21.20;;
2105;SDS011;1059;52.548;13.408;2023-03-01T00:49:20;28.70;;;19.27;;
2105;SDS011;1059;52.548;13.408;2023-03-01T00:51:49;35.30;;;21.13;;
2105;SDS011;1059;52.548;13.408;2023-03-01T00:54:16;32.80;;;21.10;;
2105;SDS011;1059;52.548;13.408;2023-03-01T00:56:43;31.90;;;21.77;;
2105;SDS011;1059;52.548;13.408;2023-03-01T00:59:11;30.37;;;20.23;;
2105;SDS011;1059;52.548;13.408;2023-03-01T01:01:38;32.90;;;21.40;;
2105;SDS011;1059;52.548;13.408;2023-03-01T01:04:05;39.90;;;24.67;;
2105;SDS011;1059;52.548;13.408;2023-03-01T01:06:34;34.30;;;22.60;;
2105;SDS011;1059;52.548;13.408;2023-03-01T01:09:04;33.40;;;23.37;;
2105;SDS011;1059;52.548;13.408;2023-03-01T01:11:32;36.03;;;23.23;;
2105;SDS011;1059;52.548;13.408;2023-03-01T01:14:01;46.10;;;23.77;;
2105;SDS011;1059;52.548;13.408;2023-03-01T01:16:30;36.23;;;23.77;;
2105;SDS011;1059;52.548;13.408;2023-03-01T01:18:58;39.00;;;24.17;;
2105;SDS011;1059;52.548;13.408;2023-03-01T01:21:25;35.03;;;22.60;;
2105;SDS011;1059;52.548;13.408;2023-03-01T01:23:53;35.40;;;23.83;;
2105;SDS011;1059;52.548;13.408;2023-03-01T01:26:20;32.03;;;23.57;;
2105;SDS011;1059;52.548;13.408;2023-03-01T01:28:48;35.40;;;22.37;;
2105;SDS011;1059;52.548;13.408;2023-03-01T01:31:16;35.07;;;24.43;;
2105;SDS011;1059;52.548;13.408;2023-03-01T01:33:44;35.43;;;24.70;;
2105;SDS011;1059;52.548;13.408;2023-03-01T01:36:12;29.20;;;21.87;;
2105;SDS011;1059;52.548;13.408;2023-03-01T01:38:39;36.47;;;24.20;;
2105;SDS011;1059;52.548;13.408;2023-03-01T01:41:07;37.67;;;24.00;;
2105;SDS011;1059;52.548;13.408;2023-03-01T01:43:37;34.63;;;24.73;;
2105;SDS011;1059;52.548;13.408;2023-03-01T01:46:06;37.50;;;24.50;;
2105;SDS011;1059;52.548;13.408;2023-03-01T01:48:39;33.10;;;24.27;;
2105;SDS011;1059;52.548;13.408;2023-03-01T01:51:11;37.90;;;24.80;;
2105;SDS011;1059;52.548;13.408;2023-03-01T01:53:42;36.73;;;24.03;;
2105;SDS011;1059;52.548;13.408;2023-03-01T01:56:14;33.57;;;22.07;;
2105;SDS011;1059;52.548;13.408;2023-03-01T01:58:43;33.60;;;22.77;;
2105;SDS011;1059;52.548;13.408;2023-03-01T02:01:12;31.40;;;21.57;;
2105;SDS011;1059;52.548;13.408;2023-03-01T02:03:39;34.17;;;21.60;;
2105;SDS011;1059;52.548;13.408;2023-03-01T02:06:13;27.30;;;19.90;;
2105;SDS011;1059;52.548;13.408;2023-03-01T02:08:45;29.03;;;19.30;;
2105;SDS011;1059;52.548;13.408;2023-03-01T02:11:14;31.67;;;20.37;;
2105;SDS011;1059;52.548;13.408;2023-03-01T02:13:41;32.13;;;20.00;;
2105;SDS011;1059;52.548;13.408;2023-03-01T02:16:09;31.87;;;20.13;;
2105;SDS011;1059;52.548;13.408;2023-03-01T02:18:37;30.80;;;21.50;;
2105;SDS011;1059;52.548;13.408;2023-03-01T02:21:08;29.50;;;20.43;;
2105;SDS011;1059;52.548;13.408;2023-03-01T02:23:43;35.10;;;21.50;;
2105;SDS011;1059;52.548;13.408;2023-03-01T02:26:14;31.00;;;21.60;;
2105;SDS011;1059;52.548;13.408;2023-03-01T02:28:46;33.80;;;22.00;;
2105;SDS011;1059;52.548;13.408;2023-03-01T02:31:14;31.03;;;20.93;;
2105;SDS011;1059;52.548;13.408;2023-03-01T02:34:01;30.60;;;19.87;;
2105;SDS011;1059;52.548;13.408;2023-03-01T02:36:30;29.30;;;19.53;;
2105;SDS011;1059;52.548;13.408;2023-03-01T02:39:01;30.13;;;18.93;;
2105;SDS011;1059;52.548;13.408;2023-03-01T02:41:31;28.10;;;19.80;;
2105;SDS011;1059;52.548;13.408;2023-03-01T02:44:03;29.70;;;18.93;;
2105;SDS011;1059;52.548;13.408;2023-03-01T02:46:30;30.60;;;20.33;;
2105;SDS011;1059;52.548;13.408;2023-03-01T02:48:57;30.57;;;19.83;;
2105;SDS011;1059;52.548;13.408;2023-03-01T02:51:27;26.60;;;18.63;;
2105;SDS011;1059;52.548;13.408;2023-03-01T02:54:10;29.00;;;18.30;;
2105;SDS011;1059;52.548;13.408;2023-03-01T02:56:43;26.10;;;19.70;;
2105;SDS011;1059;52.548;13.408;2023-03-01T02:59:14;30.87;;;20.50;;
2105;SDS011;1059;52.548;13.408;2023-03-01T03:01:42;25.63;;;19.27;;
2105;SDS011;1059;52.548;13.408;2023-03-01T03:04:10;34.40;;;21.43;;
2105;SDS011;1059;52.548;13.408;2023-03-01T03:06:42;28.20;;;18.77;;
2105;SDS011;1059;52.548;13.408;2023-03-01T03:09:09;33.23;;;22.47;;
2105;SDS011;1059;52.548;13.408;2023-03-01T03:11:37;31.17;;;20.70;;
2105;SDS011;1059;52.548;13.408;2023-03-01T03:14:06;28.30;;;20.20;;
2105;SDS011;1059;52.548;13.408;2023-03-01T03:16:38;26.73;;;19.43;;
2105;SDS011;1059;52.548;13.408;2023-03-01T03:19:06;26.83;;;18.73;;
2105;SDS011;1059;52.548;13.408;2023-03-01T03:21:33;25.83;;;18.40;;
2105;SDS011;1059;52.548;13.408;2023-03-01T03:24:00;28.47;;;18.87;;
2105;SDS011;1059;52.548;13.408;2023-03-01T03:26:27;25.37;;;17.40;;
2105;SDS011;1059;52.548;13.408;2023-03-01T03:28:54;28.20;;;18.57;;
2105;SDS011;1059;52.548;13.408;2023-03-01T03:31:22;31.43;;;19.67;;
2105;SDS011;1059;52.548;13.408;2023-03-01T03:33:50;28.70;;;18.33;;
2105;SDS011;1059;52.548;13.408;2023-03-01T03:36:17;25.43;;;17.43;;
2105;SDS011;1059;52.548;13.408;2023-03-01T03:38:45;30.17;;;18.30;;
2105;SDS011;1059;52.548;13.408;2023-03-01T03:41:13;29.30;;;18.77;;
2105;SDS011;1059;52.548;13.408;2023-03-01T03:43:41;26.17;;;18.57;;
2105;SDS011;1059;52.548;13.408;2023-03-01T03:46:09;28.23;;;19.30;;
2105;SDS011;1059;52.548;13.408;2023-03-01T03:48:37;28.30;;;20.80;;
2105;SDS011;1059;52.548;13.408;2023-03-01T03:51:09;30.80;;;19.97;;
2105;SDS011;1059;52.548;13.408;2023-03-01T03:53:36;24.73;;;19.67;;
2105;SDS011;1059;52.548;13.408;2023-03-01T03:56:03;28.03;;;18.70;;
2105;SDS011;1059;52.548;13.408;2023-03-01T03:58:31;25.43;;;19.03;;
2105;SDS011;1059;52.548;13.408;2023-03-01T04:00:58;30.43;;;19.10;;
2105;SDS011;1059;52.548;13.408;2023-03-01T04:03:26;28.83;;;18.90;;
2105;SDS011;1059;52.548;13.408;2023-03-01T04:05:54;28.43;;;19.83;;
2105;SDS011;1059;52.548;13.408;2023-03-01T04:08:25;34.33;;;21.13;;
2105;SDS011;1059;52.548;13.408;2023-03-01T04:10:53;26.30;;;20.23;;
2105;SDS011;1059;52.548;13.408;2023-03-01T04:13:24;26.63;;;18.70;;
2105;SDS011;1059;52.548;13.408;2023-03-01T04:15:51;26.87;;;19.00;;
2105;SDS011;1059;52.548;13.408;2023-03-01T04:18:19;25.30;;;17.40;;
2105;SDS011;1059;52.548;13.408;2023-03-01T04:20:48;28.17;;;19.07;;
2105;SDS011;1059;52.548;13.408;2023-03-01T04:23:17;30.17;;;18.20;;
2105;SDS011;1059;52.548;13.408;2023-03-01T04:25:47;24.40;;;17.90;;
2105;SDS011;1059;52.548;13.408;2023-03-01T04:28:19;26.40;;;18.77;;
2105;SDS011;1059;52.548;13.408;2023-03-01T04:30:46;25.80;;;17.77;;
2105;SDS011;1059;52.548;13.408;2023-03-01T04:33:13;24.00;;;17.20;;
2105;SDS011;1059;52.548;13.408;2023-03-01T04:35:40;25.50;;;17.83;;
2105;SDS011;1059;52.548;13.408;2023-03-01T04:38:07;26.40;;;17.97;;
2105;SDS011;1059;52.548;13.408;2023-03-01T04:40:34;26.03;;;18.83;;
2105;SDS011;1059;52.548;13.408;2023-03-01T04:43:03;28.23;;;19.10;;
2105;SDS011;1059;52.548;13.408;2023-03-01T04:45:31;23.57;;;16.30;;
2105;SDS011;1059;52.548;13.408;2023-03-01T04:47:59;23.20;;;16.00;;
2105;SDS011;1059;52.548;13.408;2023-03-01T04:50:26;26.00;;;18.40;;
2105;SDS011;1059;52.548;13.408;2023-03-01T04:52:53;24.47;;;17.43;;
2105;SDS011;1059;52.548;13.408;2023-03-01T04:55:23;24.37;;;16.63;;
2105;SDS011;1059;52.548;13.408;2023-03-01T04:57:51;24.43;;;16.83;;
2105;SDS011;1059;52.548;13.408;2023-03-01T05:00:20;26.63;;;17.53;;
2105;SDS011;1059;52.548;13.408;2023-03-01T05:02:49;23.10;;;15.57;;
2105;SDS011;1059;52.548;13.408;2023-03-01T05:05:22;29.30;;;18.13;;
2105;SDS011;1059;52.548;13.408;2023-03-01T05:07:51;27.77;;;18.63;;
2105;SDS011;1059;52.548;13.408;2023-03-01T05:10:19;27.93;;;19.33;;
2105;SDS011;1059;52.548;13.408;2023-03-01T05:12:46;25.90;;;18.10;;
2105;SDS011;1059;52.548;13.408;2023-03-01T05:15:13;27.33;;;18.90;;
2105;SDS011;1059;52.548;13.408;2023-03-01T05:17:42;23.63;;;16.83;;
2105;SDS011;1059;52.548;13.408;2023-03-01T05:20:09;28.30;;;19.07;;
2105;SDS011;1059;52.548;13.408;2023-03-01T05:22:36;30.33;;;18.83;;
2105;SDS011;1059;52.548;13.408;2023-03-01T05:25:04;30.70;;;18.83;;
2105;SDS011;1059;52.548;13.408;2023-03-01T05:27:32;26.40;;;18.50;;
2105;SDS011;1059;52.548;13.408;2023-03-01T05:29:59;28.53;;;19.37;;
2105;SDS011;1059;52.548;13.408;2023-03-01T05:32:38;29.47;;;19.00;;
2105;SDS011;1059;52.548;13.408;2023-03-01T05:35:07;26.10;;;18.63;;
2105;SDS011;1059;52.548;13.408;2023-03-01T05:37:35;26.43;;;18.90;;
2105;SDS011;1059;52.548;13.408;2023-03-01T05:40:02;29.90;;;19.77;;
2105;SDS011;1059;52.548;13.408;2023-03-01T05:42:30;30.40;;;17.90;;
2105;SDS011;1059;52.548;13.408;2023-03-01T05:44:57;25.83;;;17.90;;
2105;SDS011;1059;52.548;13.408;2023-03-01T05:47:24;25.43;;;19.03;;
2105;SDS011;1059;52.548;13.408;2023-03-01T05:49:50;28.07;;;19.27;;
2105;SDS011;1059;52.548;13.408;2023-03-01T05:52:19;29.47;;;18.90;;
2105;SDS011;1059;52.548;13.408;2023-03-01T05:54:45;26.40;;;17.90;;
2105;SDS011;1059;52.548;13.408;2023-03-01T05:57:12;33.07;;;22.37;;
2105;SDS011;1059;52.548;13.408;2023-03-01T05:59:39;29.83;;;19.43;;
2105;SDS011;1059;52.548;13.408;2023-03-01T06:02:06;32.30;;;22.47;;
2105;SDS011;1059;52.548;13.408;2023-03-01T06:04:33;68.33;;;40.80;;
2105;SDS011;1059;52.548;13.408;2023-03-01T06:07:00;43.07;;;26.90;;
2105;SDS011;1059;52.548;13.408;2023-03-01T06:09:28;30.80;;;19.97;;
2105;SDS011;1059;52.548;13.408;2023-03-01T06:11:55;30.80;;;20.47;;
2105;SDS011;1059;52.548;13.408;2023-03-01T06:14:22;29.33;;;20.47;;
2105;SDS011;1059;52.548;13.408;2023-03-01T06:16:49;33.73;;;20.10;;
2105;SDS011;1059;52.548;13.408;2023-03-01T06:19:16;33.17;;;19.40;;
2105;SDS011;1059;52.548;13.408;2023-03-01T06:21:43;29.20;;;21.33;;
2105;SDS011;1059;52.548;13.408;2023-03-01T06:24:09;29.90;;;21.20;;
2105;SDS011;1059;52.548;13.408;2023-03-01T06:26:38;24.20;;;18.87;;
2105;SDS011;1059;52.548;13.408;2023-03-01T06:29:04;27.80;;;18.73;;
2105;SDS011;1059;52.548;13.408;2023-03-01T06:31:32;36.60;;;20.00;;
2105;SDS011;1059;52.548;13.408;2023-03-01T06:33:59;27.37;;;19.10;;
2105;SDS011;1059;52.548;13.408;2023-03-01T06:36:26;24.67;;;17.83;;
2105;SDS011;1059;52.548;13.408;2023-03-01T06:38:53;28.53;;;19.50;;
2105;SDS011;1059;52.548;13.408;2023-03-01T06:41:19;25.13;;;18.43;;
2105;SDS011;1059;52.548;13.408;2023-03-01T06:43:48;28.30;;;19.67;;
2105;SDS011;1059;52.548;13.408;2023-03-01T06:46:15;51.00;;;30.63;;
2105;SDS011;1059;52.548;13.408;2023-03-01T06:48:41;83.60;;;51.67;;
2105;SDS011;1059;52.548;13.408;2023-03-01T06:51:08;42.80;;;28.23;;
2105;SDS011;1059;52.548;13.408;2023-03-01T06:53:35;46.30;;;29.40;;
2105;SDS011;1059;52.548;13.408;2023-03-01T06:56:02;35.63;;;21.87;;
2105;SDS011;1059;52.548;13.408;2023-03-01T06:58:29;33.80;;;19.00;;
2105;SDS011;1059;52.548;13.408;2023-03-01T07:00:57;43.93;;;21.13;;
2105;SDS011;1059;52.548;13.408;2023-03-01T07:03:24;31.07;;;19.70;;
2105;SDS011;1059;52.548;13.408;2023-03-01T07:05:51;31.73;;;20.37;;
2105;SDS011;1059;52.548;13.408;2023-03-01T07:08:18;33.63;;;20.73;;
2105;SDS011;1059;52.548;13.408;2023-03-01T07:10:45;53.80;;;36.03;;
2105;SDS011;1059;52.548;13.408;2023-03-01T07:13:12;35.03;;;22.60;;
2105;SDS011;1059;52.548;13.408;2023-03-01T07:15:39;30.70;;;20.97;;
2105;SDS011;1059;52.548;13.408;2023-03-01T07:18:08;25.53;;;17.77;;
2105;SDS011;1059;52.548;13.408;2023-03-01T07:20:35;27.90;;;20.20;;
2105;SDS011;1059;52.548;13.408;2023-03-01T07:23:01;30.90;;;19.20;;
2105;SDS011;1059;52.548;13.408;2023-03-01T07:25:28;28.63;;;20.13;;
2105;SDS011;1059;52.548;13.408;2023-03-01T07:27:55;30.60;;;18.90;;
2105;SDS011;1059;52.548;13.408;2023-03-01T07:30:22;27.80;;;19.20;;
2105;SDS011;1059;52.548;13.408;2023-03-01T07:32:50;27.23;;;19.33;;
2105;SDS011;1059;52.548;13.408;2023-03-01T07:35:19;36.87;;;22.27;;
2105;SDS011;1059;52.548;13.408;2023-03-01T07:37:46;45.23;;;30.77;;
2105;SDS011;1059;52.548;13.408;2023-03-01T07:40:12;33.03;;;21.30;;
2105;SDS011;1059;52.548;13.408;2023-03-01T07:42:40;29.03;;;20.17;;
2105;SDS011;1059;52.548;13.408;2023-03-01T07:45:07;24.50;;;18.73;;
2105;SDS011;1059;52.548;13.408;2023-03-01T07:47:34;29.27;;;16.40;;
2105;SDS011;1059;52.548;13.408;2023-03-01T07:50:01;29.67;;;18.80;;
2105;SDS011;1059;52.548;13.408;2023-03-01T07:52:30;24.60;;;17.40;;
2105;SDS011;1059;52.548;13.408;2023-03-01T07:54:57;28.80;;;15.43;;
2105;SDS011;1059;52.548;13.408;2023-03-01T07:57:24;21.50;;;16.07;;
2105;SDS011;1059;52.548;13.408;2023-03-01T07:59:51;17.93;;;13.70;;
2105;SDS011;1059;52.548;13.408;2023-03-01T08:02:18;20.57;;;14.13;;
2105;SDS011;1059;52.548;13.408;2023-03-01T08:04:45;16.07;;;12.13;;
2105;SDS011;1059;52.548;13.408;2023-03-01T08:07:12;22.00;;;12.70;;
2105;SDS011;1059;52.548;13.408;2023-03-01T08:09:40;21.20;;;12.60;;
2105;SDS011;1059;52.548;13.408;2023-03-01T08:12:07;17.77;;;13.23;;
2105;SDS011;1059;52.548;13.408;2023-03-01T08:14:33;29.90;;;21.83;;
2105;SDS011;1059;52.548;13.408;2023-03-01T08:17:00;24.73;;;16.30;;
2105;SDS011;1059;52.548;13.408;2023-03-01T08:19:29;22.07;;;14.70;;
2105;SDS011;1059;52.548;13.408;2023-03-01T08:21:56;18.50;;;11.27;;
2105;SDS011;1059;52.548;13.408;2023-03-01T08:24:24;16.80;;;11.40;;
2105;SDS011;1059;52.548;13.408;2023-03-01T08:26:53;16.70;;;12.47;;
2105;SDS011;1059;52.548;13.408;2023-03-01T08:29:21;19.33;;;10.97;;
2105;SDS011;1059;52.548;13.408;2023-03-01T08:31:49;13.77;;;10.53;;
2105;SDS011;1059;52.548;13.408;2023-03-01T08:34:17;14.17;;;11.60;;
2105;SDS011;1059;52.548;13.408;2023-03-01T08:36:45;14.90;;;11.47;;
2105;SDS011;1059;52.548;13.408;2023-03-01T08:39:13;50.07;;;31.10;;
2105;SDS011;1059;52.548;13.408;2023-03-01T08:41:41;18.87;;;9.00;;
2105;SDS011;1059;52.548;13.408;2023-03-01T08:44:10;15.40;;;8.83;;
2105;SDS011;1059;52.548;13.408;2023-03-01T08:46:39;15.23;;;8.93;;
2105;SDS011;1059;52.548;13.408;2023-03-01T08:49:08;12.97;;;8.63;;
2105;SDS011;1059;52.548;13.408;2023-03-01T08:51:37;11.30;;;7.90;;
2105;SDS011;1059;52.548;13.408;2023-03-01T08:54:04;11.00;;;7.93;;
2105;SDS011;1059;52.548;13.408;2023-03-01T08:56:32;11.23;;;7.43;;
2105;SDS011;1059;52.548;13.408;2023-03-01T08:58:59;12.60;;;8.17;;
2105;SDS011;1059;52.548;13.408;2023-03-01T09:01:27;12.30;;;8.90;;
2105;SDS011;1059;52.548;13.408;2023-03-01T09:03:54;17.30;;;8.37;;
2105;SDS011;1059;52.548;13.408;2023-03-01T09:06:21;10.70;;;8.23;;
2105;SDS011;1059;52.548;13.408;2023-03-01T09:08:49;8.03;;;6.60;;
2105;SDS011;1059;52.548;13.408;2023-03-01T09:11:16;8.93;;;7.63;;
2105;SDS011;1059;52.548;13.408;2023-03-01T09:13:44;9.97;;;7.67;;
2105;SDS011;1059;52.548;13.408;2023-03-01T09:16:12;10.43;;;8.13;;
2105;SDS011;1059;52.548;13.408;2023-03-01T09:18:41;12.33;;;9.17;;
2105;SDS011;1059;52.548;13.408;2023-03-01T09:21:09;11.83;;;8.87;;
2105;SDS011;1059;52.548;13.408;2023-03-01T09:23:38;11.43;;;8.30;;
2105;SDS011;1059;52.548;13.408;2023-03-01T09:26:06;10.37;;;7.33;;
2105;SDS011;1059;52.548;13.408;2023-03-01T09:28:34;13.60;;;8.03;;
2105;SDS011;1059;52.548;13.408;2023-03-01T09:31:02;9.20;;;6.97;;
2105;SDS011;1059;52.548;13.408;2023-03-01T09:33:31;11.03;;;7.60;;
2105;SDS011;1059;52.548;13.408;2023-03-01T09:36:01;11.53;;;7.73;;
2105;SDS011;1059;52.548;13.408;2023-03-01T09:38:29;14.00;;;8.20;;
2105;SDS011;1059;52.548;13.408;2023-03-01T09:40:56;14.40;;;8.40;;
2105;SDS011;1059;52.548;13.408;2023-03-01T09:43:25;10.50;;;8.23;;
2105;SDS011;1059;52.548;13.408;2023-03-01T09:45:58;10.20;;;5.73;;
2105;SDS011;1059;52.548;13.408;2023-03-01T09:48:30;4.43;;;3.90;;
2105;SDS011;1059;52.548;13.408;2023-03-01T09:51:05;11.60;;;5.30;;
2105;SDS011;1059;52.548;13.408;2023-03-01T09:53:35;7.93;;;6.10;;
2105;SDS011;1059;52.548;13.408;2023-03-01T09:56:02;8.00;;;4.97;;
2105;SDS011;1059;52.548;13.408;2023-03-01T09:58:34;6.33;;;4.87;;
2105;SDS011;1059;52.548;13.408;2023-03-01T10:01:11;8.93;;;5.97;;
2105;SDS011;1059;52.548;13.408;2023-03-01T10:03:55;6.37;;;5.03;;
2105;SDS011;1059;52.548;13.408;2023-03-01T10:06:32;7.30;;;4.87;;
2105;SDS011;1059;52.548;13.408;2023-03-01T10:09:00;7.50;;;5.03;;
2105;SDS011;1059;52.548;13.408;2023-03-01T10:11:32;8.03;;;3.97;;
2105;SDS011;1059;52.548;13.408;2023-03-01T10:14:02;5.03;;;3.93;;
2105;SDS011;1059;52.548;13.408;2023-03-01T10:16:35;7.20;;;4.33;;
2105;SDS011;1059;52.548;13.408;2023-03-01T10:19:09;7.23;;;4.60;;
2105;SDS011;1059;52.548;13.408;2023-03-01T10:21:43;5.83;;;3.50;;
2105;SDS011;1059;52.548;13.408;2023-03-01T10:24:12;6.70;;;4.27;;
2105;SDS011;1059;52.548;13.408;2023-03-01T10:26:46;6.40;;;4.30;;
2105;SDS011;1059;52.548;13.408;2023-03-01T10:29:17;5.57;;;3.60;;
2105;SDS011;1059;52.548;13.408;2023-03-01T10:31:50;4.73;;;3.30;;
2105;SDS011;1059;52.548;13.408;2023-03-01T10:34:19;3.87;;;3.43;;
2105;SDS011;1059;52.548;13.408;2023-03-01T10:36:50;6.53;;;3.47;;
2105;SDS011;1059;52.548;13.408;2023-03-01T10:39:19;6.07;;;3.70;;
2105;SDS011;1059;52.548;13.408;2023-03-01T10:41:55;4.83;;;3.40;;
2105;SDS011;1059;52.548;13.408;2023-03-01T10:44:37;5.43;;;3.60;;
2105;SDS011;1059;52.548;13.408;2023-03-01T10:47:13;12.77;;;6.10;;
2105;SDS011;1059;52.548;13.408;2023-03-01T10:49:51;9.47;;;3.80;;
2105;SDS011;1059;52.548;13.408;2023-03-01T10:52:34;5.00;;;3.47;;
2105;SDS011;1059;52.548;13.408;2023-03-01T10:55:03;3.73;;;3.00;;
2105;SDS011;1059;52.548;13.408;2023-03-01T10:57:44;5.90;;;3.20;;
2105;SDS011;1059;52.548;13.408;2023-03-01T11:00:19;3.43;;;3.03;;
2105;SDS011;1059;52.548;13.408;2023-03-01T11:02:49;4.00;;;3.43;;
2105;SDS011;1059;52.548;13.408;2023-03-01T11:05:21;4.30;;;3.00;;
2105;SDS011;1059;52.548;13.408;2023-03-01T11:07:51;3.70;;;3.30;;
2105;SDS011;1059;52.548;13.408;2023-03-01T11:10:21;5.87;;;4.00;;
2105;SDS011;1059;52.548;13.408;2023-03-01T11:12:50;6.60;;;3.40;;
2105;SDS011;1059;52.548;13.408;2023-03-01T11:15:23;4.60;;;3.10;;
2105;SDS011;1059;52.548;13.408;2023-03-01T11:17:52;4.97;;;3.00;;
2105;SDS011;1059;52.548;13.408;2023-03-01T11:20:24;7.63;;;4.00;;
2105;SDS011;1059;52.548;13.408;2023-03-01T11:22:55;5.37;;;3.53;;
2105;SDS011;1059;52.548;13.408;2023-03-01T11:25:25;5.90;;;3.50;;
2105;SDS011;1059;52.548;13.408;2023-03-01T11:27:53;7.57;;;3.70;;
2105;SDS011;1059;52.548;13.408;2023-03-01T11:30:23;4.73;;;3.60;;
2105;SDS011;1059;52.548;13.408;2023-03-01T11:32:57;3.17;;;2.90;;
2105;SDS011;1059;52.548;13.408;2023-03-01T11:35:30;5.83;;;3.40;;
2105;SDS011;1059;52.548;13.408;2023-03-01T11:38:04;7.67;;;3.73;;
2105;SDS011;1059;52.548;13.408;2023-03-01T11:40:43;4.30;;;3.70;;
2105;SDS011;1059;52.548;13.408;2023-03-01T11:43:17;6.90;;;3.77;;
2105;SDS011;1059;52.548;13.408;2023-03-01T11:46:02;3.93;;;3.40;;
2105;SDS011;1059;52.548;13.408;2023-03-01T11:48:52;4.50;;;3.03;;
2105;SDS011;1059;52.548;13.408;2023-03-01T11:51:33;6.13;;;3.80;;
2105;SDS011;1059;52.548;13.408;2023-03-01T11:54:18;4.47;;;3.50;;
2105;SDS011;1059;52.548;13.408;2023-03-01T11:56:55;4.10;;;3.60;;
2105;SDS011;1059;52.548;13.408;2023-03-01T11:59:39;7.00;;;2.60;;
2105;SDS011;1059;52.548;13.408;2023-03-01T12:05:25;3.33;;;2.50;;
2105;SDS011;1059;52.548;13.408;2023-03-01T12:08:14;5.40;;;3.40;;
2105;SDS011;1059;52.548;13.408;2023-03-01T12:10:48;13.33;;;3.70;;
2105;SDS011;1059;52.548;13.408;2023-03-01T12:13:28;4.33;;;2.93;;
2105;SDS011;1059;52.548;13.408;2023-03-01T12:16:15;4.50;;;2.87;;
2105;SDS011;1059;52.548;13.408;2023-03-01T12:19:01;2.90;;;2.40;;
2105;SDS011;1059;52.548;13.408;2023-03-01T12:21:52;5.23;;;3.10;;
2105;SDS011;1059;52.548;13.408;2023-03-01T12:27:46;3.30;;;2.60;;
2105;SDS011;1059;52.548;13.408;2023-03-01T12:30:26;3.13;;;2.83;;
2105;SDS011;1059;52.548;13.408;2023-03-01T12:33:04;3.23;;;2.93;;
2105;SDS011;1059;52.548;13.408;2023-03-01T12:35:47;4.63;;;3.70;;
2105;SDS011;1059;52.548;13.408;2023-03-01T12:38:24;4.30;;;2.37;;
2105;SDS011;1059;52.548;13.408;2023-03-01T12:44:28;2.90;;;2.30;;
2105;SDS011;1059;52.548;13.408;2023-03-01T12:47:12;3.50;;;2.57;;
2105;SDS011;1059;52.548;13.408;2023-03-01T12:49:57;2.87;;;2.60;;
2105;SDS011;1059;52.548;13.408;2023-03-01T12:52:29;4.23;;;2.60;;
2105;SDS011;1059;52.548;13.408;2023-03-01T12:55:06;5.60;;;2.60;;
2105;SDS011;1059;52.548;13.408;2023-03-01T12:57:46;4.10;;;2.70;;
2105;SDS011;1059;52.548;13.408;2023-03-01T13:00:24;3.60;;;3.13;;
2105;SDS011;1059;52.548;13.408;2023-03-01T13:02:58;3.97;;;2.70;;
2105;SDS011;1059;52.548;13.408;2023-03-01T13:05:35;4.70;;;3.00;;
2105;SDS011;1059;52.548;13.408;2023-03-01T13:08:09;3.47;;;3.17;;
2105;SDS011;1059;52.548;13.408;2023-03-01T13:10:43;2.80;;;2.50;;
2105;SDS011;1059;52.548;13.408;2023-03-01T13:13:18;4.93;;;2.70;;
2105;SDS011;1059;52.548;13.408;2023-03-01T13:15:48;3.90;;;2.77;;
2105;SDS011;1059;52.548;13.408;2023-03-01T13:18:30;3.27;;;2.67;;
2105;SDS011;1059;52.548;13.408;2023-03-01T13:20:58;5.20;;;2.10;;
2105;SDS011;1059;52.548;13.408;2023-03-01T13:23:28;4.80;;;2.43;;
2105;SDS011;1059;52.548;13.408;2023-03-01T13:26:01;3.83;;;2.23;;
2105;SDS011;1059;52.548;13.408;2023-03-01T13:28:37;2.30;;;2.03;;
2105;SDS011;1059;52.548;13.408;2023-03-01T13:31:11;2.13;;;1.87;;
2105;SDS011;1059;52.548;13.408;2023-03-01T13:33:54;3.50;;;2.23;;
2105;SDS011;1059;52.548;13.408;2023-03-01T13:39:39;3.20;;;2.27;;
2105;SDS011;1059;52.548;13.408;2023-03-01T13:45:15;2.20;;;1.80;;
2105;SDS011;1059;52.548;13.408;2023-03-01T13:47:48;3.10;;;2.80;;
2105;SDS011;1059;52.548;13.408;2023-03-01T13:50:19;5.60;;;2.03;;
2105;SDS011;1059;52.548;13.408;2023-03-01T13:52:50;3.10;;;2.80;;
2105;SDS011;1059;52.548;13.408;2023-03-01T13:55:23;3.73;;;3.10;;
2105;SDS011;1059;52.548;13.408;2023-03-01T13:57:54;5.77;;;2.23;;
2105;SDS011;1059;52.548;13.408;2023-03-01T14:00:30;2.70;;;2.00;;
2105;SDS011;1059;52.548;13.408;2023-03-01T14:03:05;3.53;;;2.17;;
2105;SDS011;1059;52.548;13.408;2023-03-01T14:05:37;4.17;;;2.20;;
2105;SDS011;1059;52.548;13.408;2023-03-01T14:08:05;10.37;;;2.80;;
2105;SDS011;1059;52.548;13.408;2023-03-01T14:10:48;3.00;;;2.10;;
2105;SDS011;1059;52.548;13.408;2023-03-01T14:13:28;3.60;;;2.60;;
2105;SDS011;1059;52.548;13.408;2023-03-01T14:16:10;2.23;;;2.03;;
2105;SDS011;1059;52.548;13.408;2023-03-01T14:18:50;3.33;;;2.40;;
2105;SDS011;1059;52.548;13.408;2023-03-01T14:21:25;4.03;;;2.83;;
2105;SDS011;1059;52.548;13.408;2023-03-01T14:23:52;4.50;;;3.03;;
2105;SDS011;1059;52.548;13.408;2023-03-01T14:26:20;4.50;;;3.00;;
2105;SDS011;1059;52.548;13.408;2023-03-01T14:28:47;3.57;;;2.80;;
2105;SDS011;1059;52.548;13.408;2023-03-01T14:31:29;5.50;;;5.00;;
2105;SDS011;1059;52.548;13.408;2023-03-01T14:34:02;6.20;;;2.83;;
2105;SDS011;1059;52.548;13.408;2023-03-01T14:36:29;2.70;;;2.33;;
2105;SDS011;1059;52.548;13.408;2023-03-01T14:38:57;7.90;;;3.03;;
2105;SDS011;1059;52.548;13.408;2023-03-01T14:41:29;4.00;;;2.70;;
2105;SDS011;1059;52.548;13.408;2023-03-01T14:43:59;4.23;;;2.40;;
2105;SDS011;1059;52.548;13.408;2023-03-01T14:46:28;2.53;;;2.27;;
2105;SDS011;1059;52.548;13.408;2023-03-01T14:49:01;3.63;;;2.63;;
2105;SDS011;1059;52.548;13.408;2023-03-01T14:51:32;3.20;;;2.57;;
2105;SDS011;1059;52.548;13.408;2023-03-01T14:54:02;2.43;;;2.20;;
2105;SDS011;1059;52.548;13.408;2023-03-01T14:56:45;3.40;;;2.83;;
2105;SDS011;1059;52.548;13.408;2023-03-01T14:59:13;2.53;;;2.17;;
2105;SDS011;1059;52.548;13.408;2023-03-01T15:01:40;3.80;;;2.47;;
2105;SDS011;1059;52.548;13.408;2023-03-01T15:04:11;5.77;;;3.17;;
2105;SDS011;1059;52.548;13.408;2023-03-01T15:06:39;4.33;;;2.90;;
2105;SDS011;1059;52.548;13.408;2023-03-01T15:09:11;2.80;;;2.60;;
2105;SDS011;1059;52.548;13.408;2023-03-01T15:11:41;4.27;;;2.63;;
2105;SDS011;1059;52.548;13.408;2023-03-01T15:14:25;5.20;;;2.60;;
2105;SDS011;1059;52.548;13.408;2023-03-01T15:16:53;2.53;;;2.10;;
2105;SDS011;1059;52.548;13.408;2023-03-01T15:19:22;6.73;;;2.40;;